Latest Weather Observations for Cape Borda

IDS60801

Issued at 8:05 am CDT Saturday 1 November 2014 (issued every 30 minutes, with the page automatically refreshed every 10 minutes)

About weather observations | Map of weather stations | Latest weather observations for SA | Other Formats
Station Details ID: 022823 Name: CAPE BORDA Lat: -35.75 Lon: 136.60 Height: 158.0 m
Data from the previous 72 hours. | See also: Recent months at Cape Borda
Date/Time
CDT
Temp
°C
App
Temp
°C
Dew
Point
Rel
Hum
%
Delta-T
°C
Wind Press
QNH
hPa
Press
MSL
hPa
Rain
since 9 am
mm
Dir
 
Spd
km/h
Gust
km/h
Spd
kts
Gust
kts
01/08:00am 11.0 3.4 4.1 62 3.1 SW 33 48 18 26 1014.4 - 3.8
01/07:30am 10.8 2.5 5.9 72 2.3 SW 39 59 21 32 1013.7 - 3.8
01/07:02am 10.9 3.2 5.5 69 2.5 SW 35 54 19 29 1013.1 - 3.8
01/07:00am 11.0 3.4 5.6 69 2.5 SW 35 52 19 28 1013.0 - 3.8
01/06:30am 10.6 2.9 5.4 70 2.4 SW 35 54 19 29 1012.4 - 3.8
01/06:00am 11.3 0.9 -0.2 45 4.7 SW 44 63 24 34 1011.6 1011.5 3.8
01/05:40am 11.4 2.3 4.1 61 3.3 SW 41 61 22 33 1011.2 - 3.8
01/05:30am 11.2 1.7 4.1 61 3.2 SW 43 57 23 31 1010.9 - 3.8
01/05:01am 11.2 3.1 6.8 74 2.1 SW 39 57 21 31 1010.5 - 3.8
01/05:00am 11.2 2.7 6.8 74 2.1 SW 41 57 22 31 1010.5 - 3.8
01/04:40am 12.0 3.4 6.3 68 2.7 SW 41 63 22 34 1010.1 - 3.8
01/04:30am 11.5 3.3 6.5 71 2.4 SW 39 54 21 29 1010.0 - 3.8
01/04:02am 12.1 4.1 7.4 73 2.3 SW 39 63 21 34 1009.6 - 3.8
01/04:00am 12.2 4.3 6.3 67 2.8 SW 37 50 20 27 1009.7 - 3.8
01/03:30am 11.9 4.3 5.7 66 2.9 SW 35 50 19 27 1009.4 - 3.8
01/03:00am 11.9 4.4 6.2 68 2.7 SW 35 54 19 29 1009.0 1008.8 3.8
01/02:30am 11.9 4.2 5.3 64 3.1 SW 35 56 19 30 1008.7 - 3.8
01/02:18am 12.1 4.0 5.2 62 3.2 SW 37 57 20 31 1008.7 - 3.8
01/02:00am 11.9 4.4 6.5 69 2.6 SW 35 48 19 26 1008.5 - 3.8
01/01:49am 12.0 4.9 6.6 69 2.6 SW 33 52 18 28 1008.4 - 3.8
01/01:30am 11.9 4.3 7.4 74 2.2 SW 37 52 20 28 1008.4 - 3.8
01/01:14am 11.9 4.4 7.8 76 2.0 SW 37 56 20 30 1008.2 - 3.8
01/01:00am 12.0 3.4 8.0 76 2.0 SW 43 57 23 31 1008.1 - 3.8
01/12:35am 12.3 5.3 9.8 85 1.3 SW 37 56 20 30 1008.1 - 3.8
01/12:30am 12.2 4.9 10.1 87 1.1 SW 39 54 21 29 1008.0 - 3.8
01/12:00am 12.0 5.7 10.9 93 0.6 SW 35 52 19 28 1007.7 1007.6 3.8
 
Date/Time
CDT
Temp
°C
App
Temp
°C
Dew
Point
Rel
Hum
%
Delta-T
°C
Wind Press
QNH
hPa
Press
MSL
hPa
Rain
since 9 am
mm
Dir
 
Spd
km/h
Gust
km/h
Spd
kts
Gust
kts
31/11:49pm 12.0 6.1 11.2 95 0.4 SW 33 52 18 28 1007.6 - 3.6
31/11:30pm 12.4 6.7 11.7 95 0.4 SW 33 46 18 25 1007.1 - 3.6
31/11:08pm 12.5 6.8 11.8 95 0.4 SW 33 52 18 28 1006.8 - 3.6
31/11:00pm 12.3 5.3 11.4 94 0.5 SW 39 52 21 28 1006.7 - 3.6
31/10:47pm 12.3 5.3 11.4 94 0.5 WSW 39 54 21 29 1006.4 - 3.6
31/10:44pm 13.5 8.9 12.4 93 0.6 W 28 50 15 27 1006.5 - 3.2
31/10:30pm 13.3 9.0 12.0 92 0.7 W 26 39 14 21 1006.4 - 3.2
31/10:00pm 13.0 9.0 11.9 93 0.6 W 24 35 13 19 1006.3 - 3.2
31/09:30pm 12.6 8.9 11.5 93 0.6 W 22 30 12 16 1006.0 - 3.2
31/09:00pm 12.5 9.3 11.8 95 0.4 WSW 20 28 11 15 1005.0 1004.9 3.2
31/08:30pm 12.4 9.2 11.8 96 0.3 WSW 20 32 11 17 1004.9 - 3.2
31/08:00pm 12.4 8.4 11.7 95 0.4 SW 24 35 13 19 1004.7 - 3.2
31/07:30pm 12.5 8.5 11.8 95 0.4 SW 24 33 13 18 1004.4 - 2.4
31/07:00pm 12.7 7.1 11.6 93 0.6 SW 32 44 17 24 1004.3 - 1.2
31/06:30pm 14.4 8.2 11.4 82 1.6 WSW 35 46 19 25 1004.4 - 0.0
31/06:00pm 14.8 10.0 11.5 80 1.8 SW 28 39 15 21 1003.5 1003.4 0.0
31/05:30pm 15.1 9.1 12.2 83 1.6 SW 35 48 19 26 1002.9 - 0.0
31/05:00pm 16.0 9.3 12.2 78 2.1 SW 39 54 21 29 1002.7 - 0.0
31/04:30pm 15.9 10.0 12.5 80 1.9 WSW 35 46 19 25 1003.2 - 0.0
31/04:00pm 17.4 11.6 12.8 74 2.6 SW 35 46 19 25 1002.4 - 0.0
31/03:30pm 16.8 11.8 14.0 83 1.6 SW 33 46 18 25 1002.1 - 0.0
31/03:00pm 17.4 12.5 14.3 82 1.8 SW 33 43 18 23 1002.2 1002.1 0.0
31/02:30pm 19.1 15.7 13.7 71 3.1 WSW 24 32 13 17 1002.3 - 0.0
31/02:00pm 19.4 16.6 12.7 65 3.8 W 19 24 10 13 1003.0 - 0.0
31/01:30pm 20.3 17.5 11.5 57 4.9 W 17 22 9 12 1003.1 - 0.0
31/01:00pm 20.5 17.1 10.7 53 5.4 W 19 24 10 13 1003.2 - 0.0
31/12:30pm 21.8 17.6 8.2 41 7.2 W 20 26 11 14 1003.2 - 0.0
31/12:00pm 21.1 19.2 9.2 46 6.4 N 9 13 5 7 1003.3 1003.2 0.0
31/11:30am 21.9 19.7 7.9 40 7.4 NNE 9 13 5 7 1003.4 - 0.0
31/11:00am 21.3 18.2 9.0 45 6.6 N 15 24 8 13 1003.9 - 0.0
31/10:30am 21.8 17.9 6.9 38 7.7 N 17 26 9 14 1004.2 - 0.0
31/10:00am 22.0 17.2 5.6 34 8.3 NNE 20 26 11 14 1004.2 - 0.0
31/09:30am 21.9 17.0 5.2 33 8.3 NNE 20 30 11 16 1004.3 - 0.0
31/09:00am 20.4 15.3 7.5 43 6.7 NE 24 32 13 17 1004.0 1003.9 0.2
31/08:30am 20.0 14.8 7.4 44 6.5 ENE 24 33 13 18 1003.9 - 0.2
31/08:00am 19.1 13.7 8.2 49 5.7 NE 26 33 14 18 1004.0 - 0.2
31/07:30am 18.4 13.2 8.7 53 5.1 ENE 26 35 14 19 1004.1 - 0.2
31/07:00am 17.2 12.2 9.4 60 4.1 ENE 26 33 14 18 1004.3 - 0.2
31/06:30am 17.0 12.0 9.4 61 4.0 ENE 26 37 14 20 1004.5 - 0.2
31/06:00am 16.5 12.0 9.9 65 3.5 ENE 24 30 13 16 1004.8 1004.7 0.2
31/05:30am 16.1 11.4 10.7 70 2.9 ENE 26 32 14 17 1004.8 - 0.2
31/05:00am 16.0 11.9 12.6 80 1.9 ENE 26 35 14 19 1005.1 - 0.2
31/04:30am 16.4 11.6 10.4 67 3.2 ENE 26 35 14 19 1005.5 - 0.2
31/04:00am 16.6 11.7 9.8 64 3.6 ENE 26 37 14 20 1005.8 - 0.2
31/03:30am 16.4 12.2 11.1 71 2.9 E 24 33 13 18 1005.9 - 0.2
31/03:00am 16.7 11.8 8.6 59 4.2 ENE 24 32 13 17 1006.2 1006.2 0.2
31/02:30am 17.7 12.5 5.4 44 6.0 ENE 22 26 12 14 1006.8 - 0.2
31/02:00am 19.2 13.6 3.7 36 7.4 ENE 22 26 12 14 1007.3 - 0.2
31/01:30am 19.0 13.6 4.3 38 7.1 ENE 22 28 12 15 1008.0 - 0.2
31/01:00am 18.4 12.6 2.1 33 7.5 ENE 22 28 12 15 1008.8 - 0.2
31/12:30am 18.3 13.0 2.9 36 7.2 ENE 20 26 11 14 1009.6 - 0.2
31/12:00am 17.1 12.7 6.7 50 5.2 ENE 19 20 10 11 1009.8 1009.7 0.2
 
Date/Time
CDT
Temp
°C
App
Temp
°C
Dew
Point
Rel
Hum
%
Delta-T
°C
Wind Press
QNH
hPa
Press
MSL
hPa
Rain
since 9 am
mm
Dir
 
Spd
km/h
Gust
km/h
Spd
kts
Gust
kts
30/11:30pm 17.0 12.2 7.3 53 4.9 ENE 22 28 12 15 1010.1 - 0.2
30/11:00pm 16.8 11.8 8.0 56 4.5 ENE 24 30 13 16 1010.5 - 0.2
30/10:30pm 15.9 11.8 11.3 74 2.5 ENE 24 30 13 16 1011.1 - 0.2
30/10:00pm 16.3 13.6 10.3 67 3.2 ENE 15 19 8 10 1011.6 - 0.2
30/09:30pm 16.7 13.1 8.3 57 4.3 ENE 17 20 9 11 1011.9 - 0.2
30/09:00pm 15.7 13.1 10.6 71 2.7 ENE 15 19 8 10 1011.8 1011.8 0.2
30/08:30pm 14.4 13.4 10.2 76 2.2 ESE 6 7 3 4 1011.9 - 0.2
30/08:00pm 14.7 13.4 10.1 74 2.4 E 7 11 4 6 1011.8 - 0.2
30/07:30pm 15.8 13.4 9.9 68 3.1 E 13 15 7 8 1011.4 - 0.2
30/07:00pm 16.8 14.3 9.8 63 3.7 E 13 19 7 10 1011.4 - 0.2
30/06:30pm 16.8 13.9 9.6 62 3.8 E 15 19 8 10 1011.8 - 0.2
30/06:00pm 16.9 14.5 10.1 64 3.6 ENE 13 17 7 9 1012.2 1012.2 0.2
30/05:30pm 16.8 13.0 9.8 63 3.7 NE 20 26 11 14 1012.0 - 0.2
30/05:00pm 17.3 13.8 10.2 63 3.8 NE 19 26 10 14 1012.3 - 0.2
30/04:30pm 17.3 13.5 9.8 61 4.0 NE 20 28 11 15 1012.2 - 0.2
30/04:00pm 17.3 13.3 8.2 55 4.7 NNE 19 24 10 13 1012.6 - 0.2
30/03:30pm 17.8 14.6 8.3 53 4.9 NNE 15 20 8 11 1013.2 - 0.2
30/03:00pm 17.9 15.2 7.2 49 5.4 NNE 11 19 6 10 1013.7 1013.7 0.2
30/02:30pm 17.2 14.2 9.4 60 4.1 N 15 20 8 11 1014.6 - 0.2
30/02:00pm 16.1 13.0 9.0 63 3.7 N 15 20 8 11 1014.8 - 0.2
30/01:30pm 17.0 13.3 9.4 61 4.0 N 19 24 10 13 1015.3 - 0.2
30/01:00pm 16.9 13.2 9.5 61 3.9 N 19 24 10 13 1015.1 - 0.2
30/12:30pm 16.3 12.3 9.0 62 3.8 N 20 26 11 14 1015.3 - 0.2
30/12:00pm 16.1 12.2 8.7 61 3.8 N 19 22 10 12 1015.7 1015.6 0.2
30/11:30am 16.2 13.1 8.8 61 3.8 N 15 19 8 10 1015.8 - 0.2
30/11:00am 15.6 12.5 8.8 64 3.5 N 15 20 8 11 1016.2 - 0.0
30/10:30am 15.1 12.3 8.6 65 3.3 N 13 17 7 9 1016.4 - 0.0
30/10:00am 14.8 12.0 8.5 66 3.2 N 13 19 7 10 1016.2 - 0.0
30/09:30am 14.5 12.0 8.1 65 3.2 N 11 13 6 7 1016.3 - 0.0
30/09:00am 14.0 11.8 8.0 67 3.0 N 9 13 5 7 1016.5 1016.5 0.0
30/08:30am 13.8 12.6 8.0 68 2.9 N 4 7 2 4 1016.6 - 0.0
30/08:00am 13.2 11.7 8.4 72 2.4 S 6 7 3 4 1016.4 - 0.0
30/07:30am 12.2 11.2 9.0 81 1.6 S 4 6 2 3 1016.3 - 0.0
30/07:00am 10.3 8.4 7.6 83 1.3 S 7 7 4 4 1015.8 - 0.0
30/06:30am 10.2 8.5 7.5 83 1.3 SW 6 7 3 4 1015.7 - 0.0
30/06:00am 9.5 7.5 7.2 85 1.1 S 7 9 4 5 1016.0 1015.9 0.0
30/05:30am 9.9 7.9 7.2 83 1.3 SSW 7 9 4 5 1015.9 - 0.0
30/05:00am 9.8 7.8 7.3 84 1.2 SSW 7 9 4 5 1015.6 - 0.0
30/04:30am 8.8 6.9 6.7 87 1.0 NNE 6 7 3 4 1015.5 - 0.0
30/04:00am 9.8 8.3 6.8 81 1.4 SW 4 9 2 5 1014.7 - 0.0
30/03:30am 10.6 8.4 7.9 83 1.3 S 9 13 5 7 1015.9 - 0.0
30/03:00am 10.7 8.2 8.3 85 1.2 S 11 13 6 7 1016.3 1016.3 0.0
30/02:30am 10.6 8.1 8.4 86 1.1 SSW 11 15 6 8 1016.3 - 0.0
30/02:00am 10.0 7.7 7.5 84 1.2 SSW 9 13 5 7 1016.4 - 0.0
30/01:30am 9.6 7.3 7.3 85 1.1 S 9 11 5 6 1016.4 - 0.0
30/01:00am 9.5 7.1 7.2 85 1.1 S 9 11 5 6 1016.7 - 0.0
30/12:30am 9.7 7.8 7.4 85 1.1 S 7 9 4 5 1016.9 - 0.0
30/12:00am 9.6 6.5 7.3 85 1.1 S 13 13 7 7 1017.3 1017.3 0.0
 
Date/Time
CDT
Temp
°C
App
Temp
°C
Dew
Point
Rel
Hum
%
Delta-T
°C
Wind Press
QNH
hPa
Press
MSL
hPa
Rain
since 9 am
mm
Dir
 
Spd
km/h
Gust
km/h
Spd
kts
Gust
kts
29/11:30pm 10.3 7.7 7.6 83 1.3 SSW 11 13 6 7 1017.5 - 0.0
29/11:00pm 11.1 8.6 8.0 81 1.5 SSW 11 15 6 8 1017.9 - 0.0
29/10:30pm 12.0 8.7 8.2 77 1.9 SW 15 20 8 11 1017.9 - 0.0
29/10:00pm 11.7 9.0 8.9 83 1.4 SSW 13 17 7 9 1018.1 - 0.0
29/09:30pm 12.3 8.7 8.3 76 2.0 SW 17 22 9 12 1017.8 - 0.0
29/09:00pm 12.8 8.9 8.6 75 2.1 SW 19 24 10 13 1017.6 1017.6 0.0
29/08:30pm 13.1 10.2 9.8 80 1.7 SSW 15 19 8 10 1017.2 - 0.0
29/08:00pm 13.4 10.1 9.7 78 1.9 SSW 17 22 9 12 1017.3 - 0.0
29/07:30pm 14.3 10.6 10.3 77 2.1 SW 20 24 11 13 1017.4 - 0.0
29/07:00pm 14.1 10.3 9.9 76 2.2 SW 20 28 11 15 1017.3 - 0.0
29/06:30pm 14.3 11.2 10.3 77 2.1 SW 17 24 9 13 1017.2 - 0.0
29/06:00pm 14.5 10.5 10.3 76 2.2 SW 22 30 12 16 1017.3 1017.3 0.0
29/05:30pm 15.1 11.7 10.4 73 2.5 SW 19 28 10 15 1017.2 - 0.0
29/05:00pm 15.0 11.7 9.6 70 2.8 WSW 17 22 9 12 1017.2 - 0.0
29/04:30pm 15.4 12.2 10.1 70 2.8 WSW 17 24 9 13 1017.5 - 0.0
29/04:00pm 16.0 12.3 9.3 64 3.5 W 19 24 10 13 1017.6 - 0.0
29/03:30pm 15.7 12.8 9.8 68 3.1 W 15 19 8 10 1017.6 - 0.0
29/03:00pm 15.6 12.6 9.4 66 3.2 WNW 15 19 8 10 1018.0 1018.0 0.0
29/02:30pm 15.9 13.0 9.6 66 3.3 WNW 15 20 8 11 1018.2 - 0.0
29/02:00pm 16.0 13.1 9.7 66 3.3 WNW 15 20 8 11 1018.3 - 0.0
29/01:30pm 16.5 13.0 10.1 66 3.4 WNW 19 24 10 13 1018.5 - 0.0
29/01:00pm 16.0 13.1 9.7 66 3.3 WNW 15 20 8 11 1018.7 - 0.0
29/12:30pm 15.1 12.7 9.9 71 2.7 NW 13 19 7 10 1018.9 - 0.0
29/12:00pm 15.1 12.7 10.2 72 2.6 WNW 13 17 7 9 1019.0 1019.0 0.0
29/11:30am 15.1 12.4 10.2 72 2.6 WNW 15 20 8 11 1019.1 - 0.0
29/11:00am 14.6 12.6 10.2 75 2.3 WNW 11 17 6 9 1019.2 - 0.0
29/10:30am 14.7 12.7 10.1 74 2.4 WNW 11 13 6 7 1019.2 - 0.0
29/10:00am 14.4 12.4 10.2 76 2.2 WNW 11 13 6 7 1019.1 - 0.0
29/09:30am 13.9 12.3 10.3 79 1.9 WNW 9 11 5 6 1019.2 - 0.0
29/09:00am 13.4 12.3 10.5 82 1.5 W 7 11 4 6 1019.3 1019.3 0.2
29/08:30am 13.2 11.9 11.1 87 1.1 WSW 9 11 5 6 1019.3 - 0.2

Other Formats:

Comma delimited format used in spreadsheet applications
http://www.bom.gov.au/fwo/IDS60801/IDS60801.95805.axf

JavaScript Object Notation format (JSON) in row-major order
http://www.bom.gov.au/fwo/IDS60801/IDS60801.95805.json